createdAt,value
2023-05-06T00:00:29.649Z,222.86
2023-05-06T00:01:29.672Z,225.23
2023-05-06T00:02:29.914Z,226.76
2023-05-06T00:03:29.917Z,227.58
2023-05-06T00:04:29.756Z,227.60
2023-05-06T00:05:29.812Z,226.24
2023-05-06T00:06:29.792Z,227.52
2023-05-06T00:07:29.822Z,228.73
2023-05-06T00:08:29.882Z,229.71
2023-05-06T00:09:29.849Z,232.88
2023-05-06T00:10:29.923Z,235.75
2023-05-06T00:11:29.908Z,235.43
2023-05-06T00:12:29.975Z,233.34
2023-05-06T00:13:30.036Z,228.48
2023-05-06T00:14:30.100Z,231.97
2023-05-06T00:15:32.074Z,236.34
2023-05-06T00:16:30.146Z,239.73
2023-05-06T00:17:30.184Z,240.46
2023-05-06T00:18:30.232Z,241.14
2023-05-06T00:19:30.236Z,240.47
2023-05-06T00:20:30.279Z,240.59
2023-05-06T00:21:30.353Z,241.82
2023-05-06T00:22:30.376Z,241.09
2023-05-06T00:23:30.384Z,241.20
2023-05-06T00:24:30.439Z,242.32
2023-05-06T00:25:30.389Z,241.97
2023-05-06T00:26:30.487Z,243.68
2023-05-06T00:27:30.508Z,242.63
2023-05-06T00:28:30.509Z,242.07
2023-05-06T00:29:30.559Z,243.21
2023-05-06T00:30:30.562Z,243.98
2023-05-06T00:31:30.590Z,244.62
2023-05-06T00:32:30.607Z,244.16
2023-05-06T00:33:30.662Z,244.00
2023-05-06T00:34:30.635Z,245.20
2023-05-06T00:35:30.677Z,246.43
2023-05-06T00:36:30.699Z,246.76
2023-05-06T00:37:30.778Z,244.56
2023-05-06T00:38:30.766Z,238.70
2023-05-06T00:39:30.766Z,236.00
2023-05-06T00:40:31.655Z,234.54
2023-05-06T00:41:30.793Z,237.90
2023-05-06T00:42:30.871Z,240.49
2023-05-06T00:43:30.835Z,239.26
2023-05-06T00:44:30.836Z,241.06
2023-05-06T00:45:30.899Z,240.35
2023-05-06T00:46:30.860Z,242.72
2023-05-06T00:47:30.912Z,244.48
2023-05-06T00:48:30.867Z,243.69
2023-05-06T00:49:30.874Z,241.64
2023-05-06T00:50:30.898Z,239.09
2023-05-06T00:51:30.947Z,237.48
2023-05-06T00:52:30.963Z,233.33
2023-05-06T00:53:30.955Z,229.94
2023-05-06T00:54:31.018Z,225.86
2023-05-06T00:55:31.013Z,227.15
2023-05-06T00:56:31.043Z,232.25
2023-05-06T00:57:31.097Z,235.73
2023-05-06T00:58:31.205Z,234.85
2023-05-06T00:59:31.208Z,237.75
2023-05-06T01:00:31.167Z,244.18
2023-05-06T01:01:31.356Z,248.68
2023-05-06T01:02:43.436Z,250.00
2023-05-06T01:03:32.377Z,250.05
2023-05-06T01:04:31.349Z,250.39
2023-05-06T01:05:31.275Z,251.54
2023-05-06T01:06:31.300Z,252.82
2023-05-06T01:07:31.252Z,251.22
2023-05-06T01:08:31.231Z,249.50
2023-05-06T01:09:31.283Z,245.50
2023-05-06T01:10:31.262Z,242.64
2023-05-06T01:11:31.244Z,238.77
2023-05-06T01:12:31.216Z,237.00
2023-05-06T01:13:31.248Z,236.13
2023-05-06T01:14:31.302Z,235.66
2023-05-06T01:15:31.210Z,233.63
2023-05-06T01:16:31.256Z,230.63
2023-05-06T01:17:31.242Z,225.39
2023-05-06T01:18:31.195Z,219.54
2023-05-06T01:19:31.242Z,218.37
2023-05-06T01:20:31.277Z,220.15
2023-05-06T01:21:31.295Z,226.95
2023-05-06T01:22:31.307Z,233.23
2023-05-06T01:23:31.330Z,237.38
2023-05-06T01:24:31.367Z,236.79
2023-05-06T01:25:31.379Z,235.89
2023-05-06T01:26:31.432Z,234.31
2023-05-06T01:27:31.438Z,232.21
2023-05-06T01:28:31.451Z,227.42
2023-05-06T01:29:31.506Z,226.72
2023-05-06T01:30:31.553Z,226.87
2023-05-06T01:31:31.566Z,224.08
2023-05-06T01:32:31.605Z,221.30
2023-05-06T01:33:31.605Z,225.57
2023-05-06T01:34:31.636Z,232.14
2023-05-06T01:35:31.655Z,236.44
2023-05-06T01:36:31.721Z,236.39
2023-05-06T01:37:31.683Z,233.14
2023-05-06T01:38:31.708Z,228.70
2023-05-06T01:39:31.733Z,234.07
2023-05-06T01:40:31.751Z,241.62
2023-05-06T01:41:31.779Z,244.94
2023-05-06T01:42:31.815Z,248.35
2023-05-06T01:43:31.853Z,249.56
2023-05-06T01:44:31.868Z,249.94
2023-05-06T01:45:31.913Z,248.78
2023-05-06T01:46:32.028Z,248.51
2023-05-06T01:47:31.951Z,248.68
2023-05-06T01:48:31.980Z,247.72
2023-05-06T01:49:31.999Z,245.69
2023-05-06T01:50:32.046Z,245.22
2023-05-06T01:51:32.107Z,245.65
2023-05-06T01:52:32.157Z,246.85
2023-05-06T01:53:32.164Z,249.25
2023-05-06T01:54:32.264Z,249.48
2023-05-06T01:55:32.230Z,249.35
2023-05-06T01:56:32.236Z,248.42
2023-05-06T01:57:32.252Z,246.98
2023-05-06T01:58:32.259Z,245.44
2023-05-06T01:59:32.321Z,242.22
2023-05-06T02:00:32.350Z,240.68
2023-05-06T02:01:32.468Z,238.90
2023-05-06T02:02:32.513Z,238.51
2023-05-06T02:03:32.487Z,238.85
2023-05-06T02:04:32.458Z,239.91
2023-05-06T02:05:32.520Z,241.61
2023-05-06T02:06:32.520Z,243.57
2023-05-06T02:07:32.586Z,245.16
2023-05-06T02:08:32.600Z,246.06
2023-05-06T02:09:32.619Z,245.99
2023-05-06T02:10:32.684Z,245.97
2023-05-06T02:11:32.715Z,247.17
2023-05-06T02:12:32.829Z,247.79
2023-05-06T02:13:32.861Z,245.98
2023-05-06T02:14:32.840Z,244.17
2023-05-06T02:15:32.880Z,242.75
2023-05-06T02:16:33.046Z,240.37
2023-05-06T02:17:32.986Z,238.76
2023-05-06T02:18:33.023Z,237.45
2023-05-06T02:19:33.040Z,236.67
2023-05-06T02:20:33.022Z,234.79
2023-05-06T02:21:33.097Z,234.24
2023-05-06T02:22:33.123Z,235.59
2023-05-06T02:23:33.138Z,237.56
2023-05-06T02:24:33.217Z,237.56
2023-05-06T02:25:33.239Z,240.33
2023-05-06T02:26:33.308Z,246.63
2023-05-06T02:27:33.321Z,251.13
2023-05-06T02:28:33.348Z,250.00
2023-05-06T02:29:33.416Z,249.21
2023-05-06T02:30:33.413Z,248.24
2023-05-06T02:31:33.478Z,245.47
2023-05-06T02:32:33.543Z,244.34
2023-05-06T02:33:33.560Z,242.96
2023-05-06T02:34:33.591Z,238.10
2023-05-06T02:35:33.654Z,234.01
2023-05-06T02:36:33.668Z,233.87
2023-05-06T02:37:33.677Z,235.66
2023-05-06T02:38:33.729Z,236.20
2023-05-06T02:39:33.725Z,235.35
2023-05-06T02:40:33.791Z,236.26
2023-05-06T02:41:33.831Z,235.92
2023-05-06T02:42:33.975Z,236.79
2023-05-06T02:43:33.916Z,236.15
2023-05-06T02:44:33.897Z,235.26
2023-05-06T02:45:33.986Z,229.35
2023-05-06T02:46:33.968Z,228.85
2023-05-06T02:47:34.035Z,229.88
2023-05-06T02:48:33.986Z,230.26
2023-05-06T02:49:34.009Z,231.24
2023-05-06T02:50:34.127Z,230.56
2023-05-06T02:51:34.091Z,230.89
2023-05-06T02:52:34.078Z,232.90
2023-05-06T02:53:34.141Z,234.83
2023-05-06T02:54:34.126Z,234.34
2023-05-06T02:55:34.149Z,237.38
2023-05-06T02:56:34.224Z,231.56
2023-05-06T02:57:34.231Z,222.33
2023-05-06T02:58:34.273Z,217.69
2023-05-06T02:59:34.266Z,217.73
2023-05-06T03:00:34.318Z,214.43
2023-05-06T03:01:34.376Z,210.95
2023-05-06T03:02:34.400Z,210.53
2023-05-06T03:03:34.408Z,211.46
2023-05-06T03:04:34.508Z,210.38
2023-05-06T03:05:34.511Z,210.23
2023-05-06T03:06:34.470Z,211.34
2023-05-06T03:07:34.577Z,214.09
2023-05-06T03:08:34.543Z,213.67
2023-05-06T03:09:34.585Z,213.78
2023-05-06T03:10:34.645Z,214.38
2023-05-06T03:11:34.621Z,217.85
2023-05-06T03:12:34.760Z,227.96
2023-05-06T03:13:34.695Z,232.33
2023-05-06T03:14:34.716Z,233.55
2023-05-06T03:15:34.772Z,234.94
2023-05-06T03:16:34.807Z,236.60
2023-05-06T03:17:34.799Z,239.25
2023-05-06T03:18:34.843Z,240.99
2023-05-06T03:19:34.853Z,242.73
2023-05-06T03:20:34.866Z,243.04
2023-05-06T03:21:34.944Z,240.09
2023-05-06T03:22:35.053Z,233.96
2023-05-06T03:23:34.976Z,236.96
2023-05-06T03:24:34.985Z,244.41
2023-05-06T03:25:34.999Z,248.10
2023-05-06T03:26:34.996Z,244.07
2023-05-06T03:27:35.053Z,240.45
2023-05-06T03:28:35.050Z,239.26
2023-05-06T03:29:35.063Z,240.36
2023-05-06T03:30:35.137Z,240.33
2023-05-06T03:31:35.224Z,236.83
2023-05-06T03:32:35.299Z,234.63
2023-05-06T03:33:35.294Z,232.85
2023-05-06T03:34:35.328Z,234.20
2023-05-06T03:35:35.382Z,235.05
2023-05-06T03:36:35.404Z,235.85
2023-05-06T03:37:35.482Z,232.65
2023-05-06T03:38:35.651Z,231.09
2023-05-06T03:39:35.555Z,230.16
2023-05-06T03:40:35.536Z,231.63
2023-05-06T03:41:35.558Z,232.66
2023-05-06T03:42:35.599Z,233.40
2023-05-06T03:43:35.608Z,235.88
2023-05-06T03:44:35.624Z,239.95
2023-05-06T03:45:35.652Z,246.50
2023-05-06T03:46:35.870Z,251.03
2023-05-06T03:47:35.763Z,250.06
2023-05-06T03:48:35.755Z,247.83
2023-05-06T03:49:35.754Z,248.54
2023-05-06T03:50:35.799Z,250.00
2023-05-06T03:51:35.979Z,250.00
2023-05-06T03:52:35.935Z,249.63
2023-05-06T03:53:35.875Z,250.14
2023-05-06T03:54:36.023Z,250.00
2023-05-06T03:55:35.971Z,246.94
2023-05-06T03:56:36.005Z,243.89
2023-05-06T03:57:36.047Z,242.47
2023-05-06T03:58:36.081Z,243.78
2023-05-06T03:59:36.127Z,246.24
2023-05-06T04:00:36.189Z,246.41
2023-05-06T04:01:36.233Z,246.60
2023-05-06T04:02:36.407Z,247.80
2023-05-06T04:03:36.356Z,248.71
2023-05-06T04:04:36.325Z,250.00
2023-05-06T04:05:36.379Z,249.21
2023-05-06T04:06:36.337Z,248.92
2023-05-06T04:07:36.376Z,249.82
2023-05-06T04:08:36.429Z,250.06
2023-05-06T04:09:36.446Z,249.95
2023-05-06T04:10:36.532Z,249.74
2023-05-06T04:11:36.498Z,247.08
2023-05-06T04:12:36.589Z,243.84
2023-05-06T04:13:36.524Z,242.39
2023-05-06T04:14:36.560Z,242.59
2023-05-06T04:15:36.528Z,244.55
2023-05-06T04:16:36.627Z,244.40
2023-05-06T04:17:36.624Z,242.50
2023-05-06T04:18:36.599Z,236.89
2023-05-06T04:19:36.661Z,234.42
2023-05-06T04:20:36.700Z,228.78
2023-05-06T04:21:36.718Z,227.66
2023-05-06T04:22:36.721Z,225.97
2023-05-06T04:23:36.738Z,225.14
2023-05-06T04:24:36.756Z,227.56
2023-05-06T04:25:36.803Z,226.65
2023-05-06T04:26:36.876Z,222.79
2023-05-06T04:27:36.856Z,222.59
2023-05-06T04:28:36.921Z,220.90
2023-05-06T04:29:36.957Z,217.00
2023-05-06T04:30:37.007Z,214.54
2023-05-06T04:31:37.174Z,212.25
2023-05-06T04:32:37.097Z,210.02
2023-05-06T04:33:37.101Z,210.11
2023-05-06T04:34:37.118Z,209.28
2023-05-06T04:35:37.114Z,208.10
2023-05-06T04:36:38.333Z,210.18
2023-05-06T04:37:37.114Z,207.96
2023-05-06T04:38:37.135Z,206.72
2023-05-06T04:39:37.133Z,206.00
2023-05-06T04:40:37.154Z,205.57
2023-05-06T04:41:37.132Z,205.20
2023-05-06T04:42:37.225Z,205.40
2023-05-06T04:43:37.087Z,204.59
2023-05-06T04:44:37.095Z,205.68
2023-05-06T04:45:37.092Z,206.90
2023-05-06T04:46:37.116Z,208.76
2023-05-06T04:47:37.076Z,209.60
2023-05-06T04:48:37.055Z,208.38
2023-05-06T04:49:37.062Z,210.41
2023-05-06T04:50:37.024Z,210.61
2023-05-06T04:51:37.070Z,210.52
2023-05-06T04:52:37.030Z,212.04
2023-05-06T04:53:37.039Z,213.01
2023-05-06T04:54:37.025Z,213.28
2023-05-06T04:55:37.053Z,215.15
2023-05-06T04:56:37.024Z,215.31
2023-05-06T04:57:37.092Z,215.92
2023-05-06T04:58:37.064Z,216.20
2023-05-06T04:59:37.011Z,217.12
2023-05-06T05:00:37.006Z,217.29
2023-05-06T05:01:36.991Z,219.19
2023-05-06T05:02:37.100Z,224.78
2023-05-06T05:03:36.979Z,231.40
2023-05-06T05:04:36.989Z,233.62
2023-05-06T05:05:36.959Z,233.63
2023-05-06T05:06:36.931Z,234.15
2023-05-06T05:07:36.984Z,235.99
2023-05-06T05:08:36.939Z,234.83
2023-05-06T05:09:36.905Z,232.34
2023-05-06T05:10:36.931Z,232.42
2023-05-06T05:11:36.925Z,232.94
2023-05-06T05:12:36.919Z,235.09
2023-05-06T05:13:36.878Z,236.52
2023-05-06T05:14:36.859Z,238.48
2023-05-06T05:15:36.872Z,239.73
2023-05-06T05:16:36.888Z,241.05
2023-05-06T05:17:36.877Z,243.17
2023-05-06T05:18:36.861Z,243.79
2023-05-06T05:19:36.876Z,244.55
2023-05-06T05:20:36.844Z,244.20
2023-05-06T05:21:36.813Z,244.86
2023-05-06T05:22:36.858Z,244.47
2023-05-06T05:23:36.812Z,244.88
2023-05-06T05:24:36.794Z,245.61
2023-05-06T05:25:36.814Z,246.37
2023-05-06T05:26:36.824Z,247.67
2023-05-06T05:27:36.812Z,247.24
2023-05-06T05:28:36.791Z,247.53
2023-05-06T05:29:36.764Z,246.78
2023-05-06T05:30:36.831Z,243.92
2023-05-06T05:31:36.913Z,225.26
2023-05-06T05:32:36.864Z,209.43
2023-05-06T05:33:36.794Z,204.81
2023-05-06T05:34:36.767Z,198.93
2023-05-06T05:35:36.788Z,199.12
2023-05-06T05:36:36.763Z,198.34
2023-05-06T05:37:36.748Z,197.39
2023-05-06T05:38:36.778Z,199.56
2023-05-06T05:39:36.781Z,203.93
2023-05-06T05:40:36.734Z,206.20
2023-05-06T05:41:36.752Z,207.00
2023-05-06T05:42:36.716Z,205.79
2023-05-06T05:43:36.733Z,208.66
2023-05-06T05:44:36.698Z,211.89
2023-05-06T05:45:36.721Z,214.84
2023-05-06T05:46:36.858Z,218.03
2023-05-06T05:47:36.816Z,220.43
2023-05-06T05:48:36.756Z,222.09
2023-05-06T05:49:36.745Z,220.23
2023-05-06T05:50:36.836Z,221.47
2023-05-06T05:51:36.820Z,223.95
2023-05-06T05:52:36.882Z,222.86
2023-05-06T05:53:36.887Z,219.85
2023-05-06T05:54:36.915Z,218.80
2023-05-06T05:55:36.949Z,219.14
2023-05-06T05:56:36.972Z,222.25
2023-05-06T05:57:37.049Z,225.65
2023-05-06T05:58:37.022Z,224.56
2023-05-06T05:59:37.026Z,226.15
2023-05-06T06:00:37.056Z,225.45
2023-05-06T06:01:37.061Z,224.12
2023-05-06T06:02:37.197Z,223.22
2023-05-06T06:03:37.237Z,219.05
2023-05-06T06:04:37.291Z,215.37
2023-05-06T06:05:37.176Z,214.48
2023-05-06T06:06:37.244Z,213.30
2023-05-06T06:07:37.291Z,213.39
2023-05-06T06:08:37.346Z,213.50
2023-05-06T06:09:37.432Z,215.70
2023-05-06T06:10:37.424Z,214.82
2023-05-06T06:11:37.411Z,213.71
2023-05-06T06:12:37.455Z,212.56
2023-05-06T06:13:37.460Z,210.85
2023-05-06T06:14:37.461Z,209.93
2023-05-06T06:15:37.489Z,208.08
2023-05-06T06:16:37.628Z,209.01
2023-05-06T06:17:37.595Z,210.15
2023-05-06T06:18:37.708Z,212.03
2023-05-06T06:19:37.624Z,213.86
2023-05-06T06:20:37.662Z,213.05
2023-05-06T06:21:37.734Z,211.60
2023-05-06T06:22:37.745Z,210.59
2023-05-06T06:23:37.815Z,210.64
2023-05-06T06:24:37.832Z,209.49
2023-05-06T06:25:37.869Z,207.07
2023-05-06T06:26:37.908Z,205.28
2023-05-06T06:27:37.945Z,201.74
2023-05-06T06:28:37.957Z,197.59
2023-05-06T06:29:37.973Z,193.19
2023-05-06T06:30:38.049Z,182.50
2023-05-06T06:31:40.259Z,175.44
2023-05-06T06:32:38.333Z,171.53
2023-05-06T06:33:38.310Z,170.68
2023-05-06T06:34:38.422Z,166.27
2023-05-06T06:35:38.404Z,159.61
2023-05-06T06:36:38.400Z,158.04
2023-05-06T06:37:38.418Z,158.78
2023-05-06T06:38:38.478Z,159.70
2023-05-06T06:40:18.294Z,25.00
2023-05-06T06:41:18.332Z,25.00
2023-05-06T06:42:18.313Z,25.00
2023-05-06T06:43:18.280Z,25.00
2023-05-06T06:44:18.269Z,25.00
2023-05-06T06:45:18.260Z,25.00
2023-05-06T06:46:18.304Z,21.54
2023-05-06T06:47:18.279Z,25.79
2023-05-06T06:48:18.259Z,31.26
2023-05-06T06:49:18.467Z,73.69
2023-05-06T06:50:18.386Z,94.07
2023-05-06T06:51:18.263Z,98.79
2023-05-06T06:52:18.274Z,92.62
2023-05-06T06:53:18.245Z,124.10
2023-05-06T06:54:18.202Z,131.33
2023-05-06T06:55:18.250Z,90.48
2023-05-06T06:56:18.233Z,60.03
2023-05-06T06:57:18.203Z,62.13
2023-05-06T06:58:18.222Z,53.48
2023-05-06T06:59:18.164Z,71.47
2023-05-06T07:00:18.192Z,81.33
2023-05-06T07:01:18.201Z,35.89
2023-05-06T07:02:18.166Z,19.67
2023-05-06T07:03:18.136Z,17.04
2023-05-06T07:04:18.166Z,25.00
2023-05-06T07:05:18.177Z,28.19
2023-05-06T07:06:18.269Z,37.63
2023-05-06T07:07:18.127Z,27.66
2023-05-06T07:08:18.156Z,45.13
2023-05-06T07:09:18.172Z,64.52
2023-05-06T07:10:18.127Z,87.10
2023-05-06T07:11:18.117Z,100.29
2023-05-06T07:12:18.105Z,90.00
2023-05-06T07:13:18.109Z,104.49
2023-05-06T07:14:18.110Z,130.30
2023-05-06T07:15:18.076Z,173.25
2023-05-06T07:16:18.121Z,211.83
2023-05-06T07:17:18.161Z,187.36
2023-05-06T07:18:18.105Z,181.72
2023-05-06T07:19:18.046Z,184.05
2023-05-06T07:20:18.064Z,175.70
2023-05-06T07:21:18.042Z,182.85
2023-05-06T07:22:18.089Z,172.57
2023-05-06T07:23:18.094Z,166.20
2023-05-06T07:24:18.161Z,183.63
2023-05-06T07:25:18.170Z,162.54
2023-05-06T07:26:18.208Z,200.82
2023-05-06T07:27:18.222Z,202.32
2023-05-06T07:28:18.231Z,191.02
2023-05-06T07:29:18.218Z,166.97
2023-05-06T07:30:18.271Z,145.92
2023-05-06T07:31:18.426Z,152.64
2023-05-06T07:32:18.321Z,158.38
2023-05-06T07:33:18.370Z,152.38
2023-05-06T07:34:18.376Z,152.71
2023-05-06T07:35:18.380Z,106.39
2023-05-06T07:36:18.369Z,82.33
2023-05-06T07:37:18.446Z,89.60
2023-05-06T07:38:18.523Z,96.33
2023-05-06T07:39:18.502Z,62.79
2023-05-06T07:40:18.545Z,21.08
2023-05-06T07:41:18.603Z,29.55
2023-05-06T07:42:18.662Z,45.82
2023-05-06T07:43:18.660Z,28.77
2023-05-06T07:44:18.700Z,29.61
2023-05-06T07:45:18.770Z,26.31
2023-05-06T07:46:18.937Z,27.12
2023-05-06T07:47:18.846Z,33.88
2023-05-06T07:48:19.937Z,80.45
2023-05-06T07:49:18.861Z,100.25
2023-05-06T07:50:18.886Z,128.39
2023-05-06T07:51:18.902Z,145.60
2023-05-06T07:52:18.919Z,114.82
2023-05-06T07:53:18.960Z,86.33
2023-05-06T07:54:19.097Z,59.12
2023-05-06T07:55:19.025Z,42.13
2023-05-06T07:56:19.125Z,37.66
2023-05-06T07:57:19.096Z,17.14
2023-05-06T07:58:19.138Z,0.00
2023-05-06T07:59:19.141Z,0.00
2023-05-06T08:00:19.195Z,31.60
2023-05-06T08:01:19.193Z,74.03
2023-05-06T08:02:19.275Z,54.04
2023-05-06T08:03:19.464Z,29.45
2023-05-06T08:04:19.280Z,29.17
2023-05-06T08:05:19.257Z,25.49
2023-05-06T08:06:19.255Z,68.66
2023-05-06T08:07:19.290Z,112.89
2023-05-06T08:08:19.342Z,151.72
2023-05-06T08:09:22.935Z,173.77
2023-05-06T08:10:19.412Z,160.46
2023-05-06T08:11:19.497Z,91.15
2023-05-06T08:12:19.292Z,25.00
2023-05-06T08:13:19.332Z,55.73
2023-05-06T08:14:19.309Z,85.87
2023-05-06T08:15:19.409Z,123.89
2023-05-06T08:16:19.329Z,116.29
2023-05-06T08:17:19.323Z,154.98
2023-05-06T08:18:22.797Z,152.83
2023-05-06T08:19:19.288Z,102.67
2023-05-06T08:20:19.263Z,64.37
2023-05-06T08:21:19.256Z,50.40
2023-05-06T08:22:19.251Z,75.01
2023-05-06T08:23:19.240Z,93.81
2023-05-06T08:24:19.285Z,102.30
2023-05-06T08:25:19.222Z,125.06
2023-05-06T08:26:19.278Z,120.69
2023-05-06T08:27:19.185Z,96.79
2023-05-06T08:28:19.255Z,102.59
2023-05-06T08:29:19.198Z,75.26
2023-05-06T08:30:19.170Z,56.00
2023-05-06T08:31:19.202Z,111.27
2023-05-06T08:32:19.227Z,41.76
2023-05-06T08:33:19.158Z,46.86
2023-05-06T08:34:19.165Z,47.51
2023-05-06T08:35:19.126Z,28.41
2023-05-06T08:36:19.133Z,0.00
2023-05-06T08:37:19.152Z,0.00
2023-05-06T08:38:19.164Z,0.00
2023-05-06T08:39:19.128Z,0.00
2023-05-06T08:40:19.147Z,41.09
2023-05-06T08:41:19.104Z,18.78
2023-05-06T08:42:19.122Z,3.86
2023-05-06T08:43:19.123Z,0.00
2023-05-06T08:44:19.142Z,0.00
2023-05-06T08:45:19.090Z,14.86
2023-05-06T08:46:20.165Z,54.02
2023-05-06T08:47:19.101Z,70.71
2023-05-06T08:48:19.064Z,86.99
2023-05-06T08:49:19.074Z,112.00
2023-05-06T08:50:19.058Z,63.09
2023-05-06T08:51:19.073Z,115.01
2023-05-06T08:52:19.091Z,14.93
2023-05-06T08:53:19.067Z,10.77
2023-05-06T08:54:19.094Z,21.61
2023-05-06T08:55:19.124Z,44.72
2023-05-06T08:56:19.164Z,73.05
2023-05-06T08:57:19.188Z,68.46
2023-05-06T08:58:19.284Z,78.09
2023-05-06T08:59:19.233Z,95.91
2023-05-06T09:00:19.325Z,118.44
2023-05-06T09:01:19.352Z,155.60
2023-05-06T09:02:19.393Z,239.17
2023-05-06T09:03:19.527Z,217.12
2023-05-06T09:04:19.415Z,204.43
2023-05-06T09:05:19.446Z,250.00
2023-05-06T09:06:19.487Z,240.21
2023-05-06T09:07:19.517Z,173.36
2023-05-06T09:08:19.548Z,125.39
2023-05-06T09:09:19.575Z,82.15
2023-05-06T09:10:19.639Z,85.40
2023-05-06T09:11:19.689Z,136.13
2023-05-06T09:12:19.671Z,182.91
2023-05-06T09:13:19.898Z,196.15
2023-05-06T09:14:19.828Z,189.61
2023-05-06T09:15:19.800Z,227.02
2023-05-06T09:16:19.856Z,263.01
2023-05-06T09:17:19.807Z,252.19
2023-05-06T09:18:19.885Z,250.00
2023-05-06T09:19:19.862Z,233.74
2023-05-06T09:20:19.902Z,230.62
2023-05-06T09:21:19.941Z,231.13
2023-05-06T09:22:19.969Z,223.47
2023-05-06T09:23:20.032Z,233.63
2023-05-06T09:24:20.012Z,223.37
2023-05-06T09:25:20.070Z,268.34
2023-05-06T09:26:20.077Z,260.67
2023-05-06T09:27:20.073Z,250.00
2023-05-06T09:28:20.117Z,252.02
2023-05-06T09:29:20.136Z,254.83
2023-05-06T09:30:20.232Z,250.00
2023-05-06T09:31:20.231Z,254.62
2023-05-06T09:32:20.261Z,261.29
2023-05-06T09:33:20.264Z,245.93
2023-05-06T09:34:20.333Z,225.40
2023-05-06T09:35:20.380Z,234.74
2023-05-06T09:36:20.425Z,223.23
2023-05-06T09:37:20.553Z,213.23
2023-05-06T09:38:20.511Z,212.11
2023-05-06T09:39:20.491Z,183.70
2023-05-06T09:40:20.517Z,167.32
2023-05-06T09:41:20.522Z,191.68
2023-05-06T09:42:20.568Z,210.07
2023-05-06T09:43:20.559Z,215.36
2023-05-06T09:44:20.615Z,196.35
2023-05-06T09:45:20.654Z,212.82
2023-05-06T09:46:20.767Z,219.37
2023-05-06T09:47:20.730Z,224.20
2023-05-06T09:48:20.802Z,258.11
2023-05-06T09:49:20.783Z,255.77
2023-05-06T09:50:20.822Z,237.00
2023-05-06T09:51:20.806Z,227.22
2023-05-06T09:52:20.857Z,229.38
2023-05-06T09:53:20.917Z,246.57
2023-05-06T09:54:20.919Z,245.67
2023-05-06T09:55:20.908Z,229.39
2023-05-06T09:56:20.915Z,227.58
2023-05-06T09:57:20.940Z,241.50
2023-05-06T09:58:21.001Z,251.81
2023-05-06T09:59:21.000Z,246.35
2023-05-06T10:00:21.045Z,212.53
2023-05-06T10:01:32.652Z,209.67
2023-05-06T10:02:22.296Z,190.69
2023-05-06T10:03:21.188Z,182.34
2023-05-06T10:04:22.172Z,173.05
2023-05-06T10:05:21.075Z,131.87
2023-05-06T10:06:21.047Z,129.73
2023-05-06T10:07:21.015Z,134.73
2023-05-06T10:08:21.043Z,160.16
2023-05-06T10:09:20.992Z,186.80
2023-05-06T10:10:21.457Z,186.81
2023-05-06T10:11:21.030Z,174.01
2023-05-06T10:12:21.069Z,126.12
2023-05-06T10:13:21.124Z,101.64
2023-05-06T10:14:21.008Z,66.71
2023-05-06T10:15:20.975Z,61.49
2023-05-06T10:16:21.028Z,70.51
2023-05-06T10:17:20.968Z,56.33
2023-05-06T10:18:21.116Z,64.91
2023-05-06T10:19:21.106Z,71.61
2023-05-06T10:20:20.930Z,73.57
2023-05-06T10:21:20.944Z,93.89
2023-05-06T10:22:20.954Z,87.40
2023-05-06T10:23:20.950Z,82.23
2023-05-06T10:24:20.939Z,86.68
2023-05-06T10:25:20.898Z,89.05
2023-05-06T10:26:20.927Z,98.79
2023-05-06T10:27:20.915Z,92.60
2023-05-06T10:28:31.233Z,97.62
2023-05-06T10:29:21.908Z,97.67
2023-05-06T10:30:20.879Z,99.56
2023-05-06T10:31:20.926Z,101.13
2023-05-06T10:32:20.896Z,105.10
2023-05-06T10:33:20.876Z,93.41
2023-05-06T10:34:20.838Z,68.66
2023-05-06T10:35:20.845Z,90.71
2023-05-06T10:36:20.880Z,101.81
2023-05-06T10:37:20.832Z,105.71
2023-05-06T10:38:20.844Z,103.74
2023-05-06T10:39:20.877Z,119.20
2023-05-06T10:40:20.925Z,117.36
2023-05-06T10:41:20.934Z,104.96
2023-05-06T10:42:20.971Z,91.61
2023-05-06T10:43:20.963Z,97.28
2023-05-06T10:44:20.996Z,80.04
2023-05-06T10:45:21.049Z,92.65
2023-05-06T10:46:21.016Z,84.88
2023-05-06T10:47:21.110Z,82.33
2023-05-06T10:48:21.144Z,83.41
2023-05-06T10:49:21.185Z,54.22
2023-05-06T10:50:21.270Z,39.51
2023-05-06T10:51:21.248Z,32.91
2023-05-06T10:52:21.339Z,31.96
2023-05-06T10:53:21.329Z,22.23
2023-05-06T10:54:21.425Z,29.39
2023-05-06T10:55:21.352Z,33.77
2023-05-06T10:56:21.406Z,36.10
2023-05-06T10:57:21.459Z,30.73
2023-05-06T10:58:21.512Z,18.74
2023-05-06T10:59:21.592Z,31.24
2023-05-06T11:00:21.587Z,54.66
2023-05-06T11:01:21.727Z,49.38
2023-05-06T11:02:21.767Z,58.13
2023-05-06T11:03:21.914Z,59.74
2023-05-06T11:04:21.713Z,60.30
2023-05-06T11:05:21.846Z,52.55
2023-05-06T11:06:21.784Z,55.37
2023-05-06T11:07:21.823Z,49.97
2023-05-06T11:08:21.822Z,38.78
2023-05-06T11:09:21.852Z,14.30
2023-05-06T11:10:21.900Z,11.93
2023-05-06T11:11:21.945Z,26.16
2023-05-06T11:12:21.982Z,47.85
2023-05-06T11:13:22.169Z,53.65
2023-05-06T11:14:22.052Z,62.67
2023-05-06T11:15:22.053Z,63.24
2023-05-06T11:16:22.143Z,63.20
2023-05-06T11:17:22.146Z,36.43
2023-05-06T11:18:22.151Z,30.58
2023-05-06T11:19:22.157Z,48.07
2023-05-06T11:20:22.232Z,56.42
2023-05-06T11:21:22.205Z,47.08
2023-05-06T11:22:22.305Z,28.87
2023-05-06T11:23:22.275Z,25.95
2023-05-06T11:24:22.314Z,38.97
2023-05-06T11:25:22.362Z,49.28
2023-05-06T11:26:22.372Z,56.83
2023-05-06T11:27:22.412Z,53.55
2023-05-06T11:28:22.438Z,47.76
2023-05-06T11:29:22.433Z,65.94
2023-05-06T11:30:22.460Z,81.49
2023-05-06T11:31:22.542Z,81.83
2023-05-06T11:32:22.628Z,67.36
2023-05-06T11:33:22.577Z,85.67
2023-05-06T11:34:22.628Z,75.99
2023-05-06T11:35:22.687Z,66.22
2023-05-06T11:36:22.705Z,61.83
2023-05-06T11:37:22.770Z,26.05
2023-05-06T11:38:22.941Z,31.82
2023-05-06T11:39:22.789Z,34.49
2023-05-06T11:40:22.812Z,47.61
2023-05-06T11:41:22.909Z,39.23
2023-05-06T11:42:22.878Z,40.73
2023-05-06T11:43:22.933Z,57.76
2023-05-06T11:44:22.934Z,61.91
2023-05-06T11:45:22.995Z,70.19
2023-05-06T11:46:23.127Z,72.19
2023-05-06T11:47:23.077Z,63.34
2023-05-06T11:48:23.100Z,46.28
2023-05-06T11:49:23.128Z,32.50
2023-05-06T11:50:23.157Z,33.18
2023-05-06T11:51:23.206Z,31.58
2023-05-06T11:52:23.206Z,29.52
2023-05-06T11:53:23.265Z,28.18
2023-05-06T11:54:23.266Z,13.26
2023-05-06T11:55:23.302Z,4.77
2023-05-06T11:56:23.335Z,21.77
2023-05-06T11:57:23.361Z,22.95
2023-05-06T11:58:23.395Z,30.34
2023-05-06T11:59:23.455Z,37.20
2023-05-06T12:00:23.512Z,46.47
2023-05-06T12:01:23.540Z,15.32
2023-05-06T12:02:23.664Z,5.48
2023-05-06T12:03:23.801Z,17.78
2023-05-06T12:04:23.696Z,22.43
2023-05-06T12:05:23.703Z,19.80
2023-05-06T12:06:24.567Z,36.56
2023-05-06T12:07:23.808Z,56.00
2023-05-06T12:08:28.019Z,47.16
2023-05-06T12:09:23.818Z,47.34
2023-05-06T12:10:23.953Z,47.26
2023-05-06T12:11:23.784Z,48.28
2023-05-06T12:12:23.808Z,54.00
2023-05-06T12:13:23.888Z,65.20
2023-05-06T12:14:23.811Z,61.12
2023-05-06T12:15:23.785Z,55.81
2023-05-06T12:16:23.846Z,47.69
2023-05-06T12:17:23.758Z,34.42
2023-05-06T12:18:23.774Z,38.13
2023-05-06T12:19:23.784Z,47.40
2023-05-06T12:20:23.750Z,53.42
2023-05-06T12:21:23.753Z,59.46
2023-05-06T12:22:23.724Z,58.63
2023-05-06T12:23:23.768Z,52.77
2023-05-06T12:24:23.754Z,58.85
2023-05-06T12:25:23.739Z,66.08
2023-05-06T12:26:23.772Z,78.07
2023-05-06T12:27:23.714Z,76.38
2023-05-06T12:28:23.737Z,72.63
2023-05-06T12:29:23.707Z,65.51
2023-05-06T12:30:23.760Z,33.48
2023-05-06T12:31:23.876Z,27.04
2023-05-06T12:32:23.904Z,26.57
2023-05-06T12:33:23.834Z,36.23
2023-05-06T12:34:23.908Z,57.12
2023-05-06T12:35:23.943Z,57.50
2023-05-06T12:36:24.606Z,55.22
2023-05-06T12:37:23.990Z,39.33